sensor_id;sensor_type;location;lat;lon;timestamp;P1;durP1;ratioP1;P2;durP2;ratioP2
45254;SDS011;30989;52.078;21.014;2024-01-15T00:00:40;14.40;;;6.07;;
45254;SDS011;30989;52.078;21.014;2024-01-15T00:03:06;8.73;;;5.15;;
45254;SDS011;30989;52.078;21.014;2024-01-15T00:05:31;15.85;;;7.07;;
45254;SDS011;30989;52.078;21.014;2024-01-15T00:07:57;15.77;;;6.68;;
45254;SDS011;30989;52.078;21.014;2024-01-15T00:10:23;13.90;;;6.15;;
45254;SDS011;30989;52.078;21.014;2024-01-15T00:12:48;11.02;;;5.65;;
45254;SDS011;30989;52.078;21.014;2024-01-15T00:15:14;12.40;;;5.85;;
45254;SDS011;30989;52.078;21.014;2024-01-15T00:17:40;17.00;;;7.35;;
45254;SDS011;30989;52.078;21.014;2024-01-15T00:20:05;14.05;;;6.47;;
45254;SDS011;30989;52.078;21.014;2024-01-15T00:22:31;13.57;;;6.13;;
45254;SDS011;30989;52.078;21.014;2024-01-15T00:24:57;11.50;;;6.07;;
45254;SDS011;30989;52.078;21.014;2024-01-15T00:27:23;13.07;;;6.22;;
45254;SDS011;30989;52.078;21.014;2024-01-15T00:29:49;10.57;;;5.40;;
45254;SDS011;30989;52.078;21.014;2024-01-15T00:32:15;14.80;;;6.20;;
45254;SDS011;30989;52.078;21.014;2024-01-15T00:34:41;13.35;;;6.32;;
45254;SDS011;30989;52.078;21.014;2024-01-15T00:37:06;12.25;;;6.15;;
45254;SDS011;30989;52.078;21.014;2024-01-15T00:39:32;12.20;;;6.50;;
45254;SDS011;30989;52.078;21.014;2024-01-15T00:41:58;12.52;;;5.88;;
45254;SDS011;30989;52.078;21.014;2024-01-15T00:44:23;12.60;;;5.90;;
45254;SDS011;30989;52.078;21.014;2024-01-15T00:46:49;15.73;;;5.75;;
45254;SDS011;30989;52.078;21.014;2024-01-15T00:49:14;13.23;;;6.40;;
45254;SDS011;30989;52.078;21.014;2024-01-15T00:51:40;12.05;;;6.00;;
45254;SDS011;30989;52.078;21.014;2024-01-15T00:54:06;13.23;;;6.78;;
45254;SDS011;30989;52.078;21.014;2024-01-15T00:56:32;9.52;;;4.88;;
45254;SDS011;30989;52.078;21.014;2024-01-15T00:58:58;13.40;;;5.43;;
45254;SDS011;30989;52.078;21.014;2024-01-15T01:01:23;14.13;;;6.40;;
45254;SDS011;30989;52.078;21.014;2024-01-15T01:03:48;15.63;;;6.43;;
45254;SDS011;30989;52.078;21.014;2024-01-15T01:06:14;13.60;;;6.97;;
45254;SDS011;30989;52.078;21.014;2024-01-15T01:08:39;15.05;;;6.43;;
45254;SDS011;30989;52.078;21.014;2024-01-15T01:11:05;17.00;;;7.50;;
45254;SDS011;30989;52.078;21.014;2024-01-15T01:13:32;14.27;;;7.47;;
45254;SDS011;30989;52.078;21.014;2024-01-15T01:15:57;15.85;;;7.78;;
45254;SDS011;30989;52.078;21.014;2024-01-15T01:18:23;18.23;;;8.82;;
45254;SDS011;30989;52.078;21.014;2024-01-15T01:20:51;15.93;;;8.27;;
45254;SDS011;30989;52.078;21.014;2024-01-15T01:23:17;15.80;;;8.25;;
45254;SDS011;30989;52.078;21.014;2024-01-15T01:25:42;16.45;;;8.00;;
45254;SDS011;30989;52.078;21.014;2024-01-15T01:28:08;14.23;;;7.75;;
45254;SDS011;30989;52.078;21.014;2024-01-15T01:30:34;22.08;;;8.98;;
45254;SDS011;30989;52.078;21.014;2024-01-15T01:32:59;19.92;;;8.90;;
45254;SDS011;30989;52.078;21.014;2024-01-15T01:35:25;22.95;;;8.60;;
45254;SDS011;30989;52.078;21.014;2024-01-15T01:37:50;19.20;;;8.23;;
45254;SDS011;30989;52.078;21.014;2024-01-15T01:40:16;19.55;;;8.75;;
45254;SDS011;30989;52.078;21.014;2024-01-15T01:42:41;18.08;;;7.85;;
45254;SDS011;30989;52.078;21.014;2024-01-15T01:45:07;13.90;;;7.40;;
45254;SDS011;30989;52.078;21.014;2024-01-15T01:47:33;14.68;;;7.55;;
45254;SDS011;30989;52.078;21.014;2024-01-15T01:49:59;22.45;;;10.68;;
45254;SDS011;30989;52.078;21.014;2024-01-15T01:52:24;18.17;;;7.93;;
45254;SDS011;30989;52.078;21.014;2024-01-15T01:54:50;19.40;;;8.13;;
45254;SDS011;30989;52.078;21.014;2024-01-15T01:57:17;19.65;;;7.75;;
45254;SDS011;30989;52.078;21.014;2024-01-15T01:59:43;15.60;;;6.78;;
45254;SDS011;30989;52.078;21.014;2024-01-15T02:02:09;13.05;;;6.35;;
45254;SDS011;30989;52.078;21.014;2024-01-15T02:04:35;16.42;;;7.45;;
45254;SDS011;30989;52.078;21.014;2024-01-15T02:07:01;18.08;;;7.93;;
45254;SDS011;30989;52.078;21.014;2024-01-15T02:09:27;17.15;;;7.57;;
45254;SDS011;30989;52.078;21.014;2024-01-15T02:11:53;12.13;;;7.40;;
45254;SDS011;30989;52.078;21.014;2024-01-15T02:14:19;12.70;;;6.85;;
45254;SDS011;30989;52.078;21.014;2024-01-15T02:16:44;15.95;;;7.75;;
45254;SDS011;30989;52.078;21.014;2024-01-15T02:19:16;14.20;;;7.03;;
45254;SDS011;30989;52.078;21.014;2024-01-15T02:21:42;17.15;;;7.25;;
45254;SDS011;30989;52.078;21.014;2024-01-15T02:24:08;15.48;;;6.97;;
45254;SDS011;30989;52.078;21.014;2024-01-15T02:26:34;16.05;;;6.95;;
45254;SDS011;30989;52.078;21.014;2024-01-15T02:29:01;13.20;;;7.15;;
45254;SDS011;30989;52.078;21.014;2024-01-15T02:31:27;15.60;;;7.50;;
45254;SDS011;30989;52.078;21.014;2024-01-15T02:33:52;16.02;;;7.38;;
45254;SDS011;30989;52.078;21.014;2024-01-15T02:36:18;17.48;;;7.97;;
45254;SDS011;30989;52.078;21.014;2024-01-15T02:38:43;16.23;;;7.13;;
45254;SDS011;30989;52.078;21.014;2024-01-15T02:41:09;17.63;;;7.50;;
45254;SDS011;30989;52.078;21.014;2024-01-15T02:43:34;12.70;;;6.60;;
45254;SDS011;30989;52.078;21.014;2024-01-15T02:46:00;18.58;;;7.50;;
45254;SDS011;30989;52.078;21.014;2024-01-15T02:48:25;17.40;;;6.97;;
45254;SDS011;30989;52.078;21.014;2024-01-15T02:50:51;16.50;;;8.10;;
45254;SDS011;30989;52.078;21.014;2024-01-15T02:53:16;19.95;;;7.57;;
45254;SDS011;30989;52.078;21.014;2024-01-15T02:55:42;16.00;;;7.10;;
45254;SDS011;30989;52.078;21.014;2024-01-15T02:58:07;15.05;;;6.70;;
45254;SDS011;30989;52.078;21.014;2024-01-15T03:00:33;15.63;;;7.25;;
45254;SDS011;30989;52.078;21.014;2024-01-15T03:02:58;15.90;;;7.93;;
45254;SDS011;30989;52.078;21.014;2024-01-15T03:05:24;17.92;;;7.90;;
45254;SDS011;30989;52.078;21.014;2024-01-15T03:07:49;18.15;;;8.20;;
45254;SDS011;30989;52.078;21.014;2024-01-15T03:10:14;17.33;;;8.13;;
45254;SDS011;30989;52.078;21.014;2024-01-15T03:12:40;14.00;;;7.72;;
45254;SDS011;30989;52.078;21.014;2024-01-15T03:15:06;14.95;;;7.78;;
45254;SDS011;30989;52.078;21.014;2024-01-15T03:17:31;16.23;;;7.80;;
45254;SDS011;30989;52.078;21.014;2024-01-15T03:19:57;21.80;;;8.77;;
45254;SDS011;30989;52.078;21.014;2024-01-15T03:22:22;16.30;;;8.18;;
45254;SDS011;30989;52.078;21.014;2024-01-15T03:24:48;19.10;;;8.40;;
45254;SDS011;30989;52.078;21.014;2024-01-15T03:27:13;18.40;;;8.73;;
45254;SDS011;30989;52.078;21.014;2024-01-15T03:29:39;22.23;;;9.27;;
45254;SDS011;30989;52.078;21.014;2024-01-15T03:32:05;18.38;;;8.02;;
45254;SDS011;30989;52.078;21.014;2024-01-15T03:34:31;19.98;;;8.70;;
45254;SDS011;30989;52.078;21.014;2024-01-15T03:36:56;19.25;;;8.45;;
45254;SDS011;30989;52.078;21.014;2024-01-15T03:39:22;22.38;;;8.27;;
45254;SDS011;30989;52.078;21.014;2024-01-15T03:41:50;16.27;;;7.65;;
45254;SDS011;30989;52.078;21.014;2024-01-15T03:44:16;19.00;;;8.07;;
45254;SDS011;30989;52.078;21.014;2024-01-15T03:46:41;17.50;;;6.95;;
45254;SDS011;30989;52.078;21.014;2024-01-15T03:49:06;17.88;;;7.45;;
45254;SDS011;30989;52.078;21.014;2024-01-15T03:51:32;17.27;;;7.72;;
45254;SDS011;30989;52.078;21.014;2024-01-15T03:53:57;18.00;;;7.28;;
45254;SDS011;30989;52.078;21.014;2024-01-15T03:56:23;24.02;;;8.80;;
45254;SDS011;30989;52.078;21.014;2024-01-15T03:58:48;17.25;;;7.82;;
45254;SDS011;30989;52.078;21.014;2024-01-15T04:01:14;16.25;;;7.60;;
45254;SDS011;30989;52.078;21.014;2024-01-15T04:03:39;15.45;;;7.80;;
45254;SDS011;30989;52.078;21.014;2024-01-15T04:06:05;14.55;;;6.63;;
45254;SDS011;30989;52.078;21.014;2024-01-15T04:08:30;13.65;;;6.68;;
45254;SDS011;30989;52.078;21.014;2024-01-15T04:10:56;15.20;;;7.55;;
45254;SDS011;30989;52.078;21.014;2024-01-15T04:13:21;18.90;;;8.50;;
45254;SDS011;30989;52.078;21.014;2024-01-15T04:15:47;20.08;;;8.05;;
45254;SDS011;30989;52.078;21.014;2024-01-15T04:18:12;17.02;;;7.10;;
45254;SDS011;30989;52.078;21.014;2024-01-15T04:20:37;16.63;;;7.13;;
45254;SDS011;30989;52.078;21.014;2024-01-15T04:23:03;16.25;;;7.53;;
45254;SDS011;30989;52.078;21.014;2024-01-15T04:25:29;19.95;;;7.13;;
45254;SDS011;30989;52.078;21.014;2024-01-15T04:27:55;15.07;;;6.45;;
45254;SDS011;30989;52.078;21.014;2024-01-15T04:30:20;13.70;;;5.93;;
45254;SDS011;30989;52.078;21.014;2024-01-15T04:32:45;15.02;;;6.30;;
45254;SDS011;30989;52.078;21.014;2024-01-15T04:35:11;16.23;;;7.35;;
45254;SDS011;30989;52.078;21.014;2024-01-15T04:37:37;13.40;;;6.32;;
45254;SDS011;30989;52.078;21.014;2024-01-15T04:40:03;11.70;;;6.13;;
45254;SDS011;30989;52.078;21.014;2024-01-15T04:42:30;14.70;;;6.05;;
45254;SDS011;30989;52.078;21.014;2024-01-15T04:44:55;14.13;;;6.32;;
45254;SDS011;30989;52.078;21.014;2024-01-15T04:47:20;13.10;;;6.18;;
45254;SDS011;30989;52.078;21.014;2024-01-15T04:49:46;13.25;;;5.97;;
45254;SDS011;30989;52.078;21.014;2024-01-15T04:52:11;16.90;;;7.05;;
45254;SDS011;30989;52.078;21.014;2024-01-15T04:54:37;15.77;;;7.15;;
45254;SDS011;30989;52.078;21.014;2024-01-15T04:57:03;12.93;;;6.22;;
45254;SDS011;30989;52.078;21.014;2024-01-15T04:59:29;15.10;;;6.60;;
45254;SDS011;30989;52.078;21.014;2024-01-15T05:01:54;21.10;;;8.90;;
45254;SDS011;30989;52.078;21.014;2024-01-15T05:04:20;12.07;;;5.88;;
45254;SDS011;30989;52.078;21.014;2024-01-15T05:06:46;16.52;;;6.65;;
45254;SDS011;30989;52.078;21.014;2024-01-15T05:09:11;12.35;;;6.13;;
45254;SDS011;30989;52.078;21.014;2024-01-15T05:11:38;15.30;;;6.28;;
45254;SDS011;30989;52.078;21.014;2024-01-15T05:14:04;16.83;;;6.93;;
45254;SDS011;30989;52.078;21.014;2024-01-15T05:16:30;16.05;;;6.85;;
45254;SDS011;30989;52.078;21.014;2024-01-15T05:18:55;15.15;;;6.65;;
45254;SDS011;30989;52.078;21.014;2024-01-15T05:21:20;13.35;;;6.55;;
45254;SDS011;30989;52.078;21.014;2024-01-15T05:23:46;14.85;;;7.00;;
45254;SDS011;30989;52.078;21.014;2024-01-15T05:26:11;15.10;;;6.32;;
45254;SDS011;30989;52.078;21.014;2024-01-15T05:28:37;12.13;;;6.10;;
45254;SDS011;30989;52.078;21.014;2024-01-15T05:31:02;14.75;;;6.63;;
45254;SDS011;30989;52.078;21.014;2024-01-15T05:33:29;12.60;;;5.53;;
45254;SDS011;30989;52.078;21.014;2024-01-15T05:35:54;14.27;;;6.28;;
45254;SDS011;30989;52.078;21.014;2024-01-15T05:38:20;12.60;;;6.10;;
45254;SDS011;30989;52.078;21.014;2024-01-15T05:40:46;15.57;;;7.07;;
45254;SDS011;30989;52.078;21.014;2024-01-15T05:43:11;17.70;;;6.32;;
45254;SDS011;30989;52.078;21.014;2024-01-15T05:45:38;13.95;;;6.28;;
45254;SDS011;30989;52.078;21.014;2024-01-15T05:48:04;13.43;;;6.30;;
45254;SDS011;30989;52.078;21.014;2024-01-15T05:50:29;13.38;;;6.68;;
45254;SDS011;30989;52.078;21.014;2024-01-15T05:52:55;13.10;;;6.75;;
45254;SDS011;30989;52.078;21.014;2024-01-15T05:55:20;14.52;;;6.68;;
45254;SDS011;30989;52.078;21.014;2024-01-15T05:57:46;16.65;;;6.95;;
45254;SDS011;30989;52.078;21.014;2024-01-15T06:00:11;14.07;;;6.25;;
45254;SDS011;30989;52.078;21.014;2024-01-15T06:02:37;9.55;;;4.93;;
45254;SDS011;30989;52.078;21.014;2024-01-15T06:05:04;14.35;;;6.43;;
45254;SDS011;30989;52.078;21.014;2024-01-15T06:07:29;17.38;;;7.00;;
45254;SDS011;30989;52.078;21.014;2024-01-15T06:09:55;14.90;;;6.57;;
45254;SDS011;30989;52.078;21.014;2024-01-15T06:12:22;14.32;;;6.55;;
45254;SDS011;30989;52.078;21.014;2024-01-15T06:14:48;12.50;;;6.15;;
45254;SDS011;30989;52.078;21.014;2024-01-15T06:17:13;13.65;;;6.25;;
45254;SDS011;30989;52.078;21.014;2024-01-15T06:19:39;15.30;;;6.47;;
45254;SDS011;30989;52.078;21.014;2024-01-15T06:22:05;13.13;;;5.90;;
45254;SDS011;30989;52.078;21.014;2024-01-15T06:24:30;10.30;;;5.85;;
45254;SDS011;30989;52.078;21.014;2024-01-15T06:26:56;10.82;;;5.63;;
45254;SDS011;30989;52.078;21.014;2024-01-15T06:29:21;15.70;;;6.85;;
45254;SDS011;30989;52.078;21.014;2024-01-15T06:31:47;12.57;;;5.80;;
45254;SDS011;30989;52.078;21.014;2024-01-15T06:34:12;12.07;;;6.32;;
45254;SDS011;30989;52.078;21.014;2024-01-15T06:36:38;12.43;;;6.75;;
45254;SDS011;30989;52.078;21.014;2024-01-15T06:39:03;11.90;;;5.90;;
45254;SDS011;30989;52.078;21.014;2024-01-15T06:41:29;11.57;;;5.63;;
45254;SDS011;30989;52.078;21.014;2024-01-15T06:43:54;12.50;;;6.07;;
45254;SDS011;30989;52.078;21.014;2024-01-15T06:46:21;10.70;;;5.03;;
45254;SDS011;30989;52.078;21.014;2024-01-15T06:48:47;12.73;;;5.93;;
45254;SDS011;30989;52.078;21.014;2024-01-15T06:51:12;13.90;;;6.30;;
45254;SDS011;30989;52.078;21.014;2024-01-15T06:53:38;16.45;;;6.82;;
45254;SDS011;30989;52.078;21.014;2024-01-15T06:56:03;12.23;;;5.53;;
45254;SDS011;30989;52.078;21.014;2024-01-15T06:58:30;12.10;;;6.80;;
45254;SDS011;30989;52.078;21.014;2024-01-15T07:00:56;16.10;;;5.75;;
45254;SDS011;30989;52.078;21.014;2024-01-15T07:03:21;13.57;;;5.70;;
45254;SDS011;30989;52.078;21.014;2024-01-15T07:05:47;14.50;;;6.45;;
45254;SDS011;30989;52.078;21.014;2024-01-15T07:08:13;13.27;;;6.65;;
45254;SDS011;30989;52.078;21.014;2024-01-15T07:10:38;17.40;;;7.68;;
45254;SDS011;30989;52.078;21.014;2024-01-15T07:13:03;13.68;;;6.82;;
45254;SDS011;30989;52.078;21.014;2024-01-15T07:15:30;11.95;;;5.38;;
45254;SDS011;30989;52.078;21.014;2024-01-15T07:17:56;12.55;;;6.20;;
45254;SDS011;30989;52.078;21.014;2024-01-15T07:20:21;14.23;;;6.50;;
45254;SDS011;30989;52.078;21.014;2024-01-15T07:22:47;14.00;;;6.38;;
45254;SDS011;30989;52.078;21.014;2024-01-15T07:25:12;13.23;;;7.15;;
45254;SDS011;30989;52.078;21.014;2024-01-15T07:27:38;13.63;;;6.45;;
45254;SDS011;30989;52.078;21.014;2024-01-15T07:30:04;13.50;;;6.97;;
45254;SDS011;30989;52.078;21.014;2024-01-15T07:32:31;15.00;;;7.15;;
45254;SDS011;30989;52.078;21.014;2024-01-15T07:34:57;16.02;;;7.05;;
45254;SDS011;30989;52.078;21.014;2024-01-15T07:37:24;13.20;;;5.82;;
45254;SDS011;30989;52.078;21.014;2024-01-15T07:39:49;12.07;;;6.50;;
45254;SDS011;30989;52.078;21.014;2024-01-15T07:42:14;13.55;;;5.20;;
45254;SDS011;30989;52.078;21.014;2024-01-15T07:44:40;12.13;;;5.93;;
45254;SDS011;30989;52.078;21.014;2024-01-15T07:47:05;13.13;;;6.47;;
45254;SDS011;30989;52.078;21.014;2024-01-15T07:49:31;15.40;;;7.07;;
45254;SDS011;30989;52.078;21.014;2024-01-15T07:51:56;13.57;;;6.10;;
45254;SDS011;30989;52.078;21.014;2024-01-15T07:54:22;13.40;;;6.25;;
45254;SDS011;30989;52.078;21.014;2024-01-15T07:56:58;14.02;;;6.78;;
45254;SDS011;30989;52.078;21.014;2024-01-15T08:01:56;20.15;;;6.97;;
45254;SDS011;30989;52.078;21.014;2024-01-15T08:04:24;12.30;;;6.47;;
45254;SDS011;30989;52.078;21.014;2024-01-15T08:06:49;13.43;;;6.22;;
45254;SDS011;30989;52.078;21.014;2024-01-15T08:09:15;11.90;;;4.88;;
45254;SDS011;30989;52.078;21.014;2024-01-15T08:11:40;12.65;;;6.28;;
45254;SDS011;30989;52.078;21.014;2024-01-15T08:14:09;12.05;;;5.63;;
45254;SDS011;30989;52.078;21.014;2024-01-15T08:16:38;11.07;;;4.80;;
45254;SDS011;30989;52.078;21.014;2024-01-15T08:19:04;9.40;;;4.85;;
45254;SDS011;30989;52.078;21.014;2024-01-15T08:21:29;10.43;;;5.70;;
45254;SDS011;30989;52.078;21.014;2024-01-15T08:23:56;7.30;;;4.50;;
45254;SDS011;30989;52.078;21.014;2024-01-15T08:26:22;11.18;;;5.50;;
45254;SDS011;30989;52.078;21.014;2024-01-15T08:28:48;10.65;;;4.97;;
45254;SDS011;30989;52.078;21.014;2024-01-15T08:31:13;11.82;;;5.13;;
45254;SDS011;30989;52.078;21.014;2024-01-15T08:33:39;13.48;;;5.85;;
45254;SDS011;30989;52.078;21.014;2024-01-15T08:36:04;9.88;;;5.35;;
45254;SDS011;30989;52.078;21.014;2024-01-15T08:38:30;11.65;;;5.68;;
45254;SDS011;30989;52.078;21.014;2024-01-15T08:40:56;10.98;;;5.38;;
45254;SDS011;30989;52.078;21.014;2024-01-15T08:43:24;15.15;;;5.60;;
45254;SDS011;30989;52.078;21.014;2024-01-15T08:45:51;14.70;;;5.47;;
45254;SDS011;30989;52.078;21.014;2024-01-15T08:48:16;11.63;;;5.53;;
45254;SDS011;30989;52.078;21.014;2024-01-15T08:50:42;11.15;;;5.50;;
45254;SDS011;30989;52.078;21.014;2024-01-15T08:53:07;13.10;;;5.93;;
45254;SDS011;30989;52.078;21.014;2024-01-15T08:55:33;11.45;;;5.25;;
45254;SDS011;30989;52.078;21.014;2024-01-15T08:57:59;10.55;;;5.10;;
45254;SDS011;30989;52.078;21.014;2024-01-15T09:00:24;11.45;;;5.78;;
45254;SDS011;30989;52.078;21.014;2024-01-15T09:02:50;14.75;;;6.10;;
45254;SDS011;30989;52.078;21.014;2024-01-15T09:05:15;8.02;;;4.60;;
45254;SDS011;30989;52.078;21.014;2024-01-15T09:07:41;9.48;;;4.57;;
45254;SDS011;30989;52.078;21.014;2024-01-15T09:10:06;11.23;;;4.60;;
45254;SDS011;30989;52.078;21.014;2024-01-15T09:12:32;9.75;;;4.60;;
45254;SDS011;30989;52.078;21.014;2024-01-15T09:14:57;11.13;;;4.80;;
45254;SDS011;30989;52.078;21.014;2024-01-15T09:17:23;6.78;;;3.55;;
45254;SDS011;30989;52.078;21.014;2024-01-15T09:19:53;8.52;;;4.13;;
45254;SDS011;30989;52.078;21.014;2024-01-15T09:22:18;10.68;;;4.90;;
45254;SDS011;30989;52.078;21.014;2024-01-15T09:24:44;9.73;;;4.28;;
45254;SDS011;30989;52.078;21.014;2024-01-15T09:27:10;11.05;;;4.88;;
45254;SDS011;30989;52.078;21.014;2024-01-15T09:29:36;12.80;;;3.92;;
45254;SDS011;30989;52.078;21.014;2024-01-15T09:32:05;7.75;;;3.72;;
45254;SDS011;30989;52.078;21.014;2024-01-15T09:34:32;10.32;;;4.35;;
45254;SDS011;30989;52.078;21.014;2024-01-15T09:37:00;8.45;;;3.47;;
45254;SDS011;30989;52.078;21.014;2024-01-15T09:39:26;9.20;;;3.80;;
45254;SDS011;30989;52.078;21.014;2024-01-15T09:41:52;8.10;;;3.50;;
45254;SDS011;30989;52.078;21.014;2024-01-15T09:44:19;9.55;;;3.70;;
45254;SDS011;30989;52.078;21.014;2024-01-15T09:46:46;6.50;;;3.38;;
45254;SDS011;30989;52.078;21.014;2024-01-15T09:49:16;7.72;;;3.20;;
45254;SDS011;30989;52.078;21.014;2024-01-15T09:51:42;7.53;;;3.60;;
45254;SDS011;30989;52.078;21.014;2024-01-15T09:54:08;6.97;;;2.80;;
45254;SDS011;30989;52.078;21.014;2024-01-15T09:56:34;8.85;;;3.42;;
45254;SDS011;30989;52.078;21.014;2024-01-15T09:59:00;8.25;;;3.00;;
45254;SDS011;30989;52.078;21.014;2024-01-15T10:01:28;7.18;;;2.83;;
45254;SDS011;30989;52.078;21.014;2024-01-15T10:03:54;5.30;;;2.40;;
45254;SDS011;30989;52.078;21.014;2024-01-15T10:06:21;6.97;;;2.47;;
45254;SDS011;30989;52.078;21.014;2024-01-15T10:08:47;7.85;;;2.70;;
45254;SDS011;30989;52.078;21.014;2024-01-15T10:11:13;5.85;;;2.17;;
45254;SDS011;30989;52.078;21.014;2024-01-15T10:13:39;10.23;;;3.13;;
45254;SDS011;30989;52.078;21.014;2024-01-15T10:16:09;8.98;;;2.85;;
45254;SDS011;30989;52.078;21.014;2024-01-15T10:18:36;7.15;;;2.80;;
45254;SDS011;30989;52.078;21.014;2024-01-15T10:21:08;8.15;;;2.83;;
45254;SDS011;30989;52.078;21.014;2024-01-15T10:23:33;10.27;;;3.35;;
45254;SDS011;30989;52.078;21.014;2024-01-15T10:25:59;6.38;;;3.22;;
45254;SDS011;30989;52.078;21.014;2024-01-15T10:28:31;8.32;;;3.53;;
45254;SDS011;30989;52.078;21.014;2024-01-15T10:30:57;9.75;;;2.63;;
45254;SDS011;30989;52.078;21.014;2024-01-15T10:33:26;9.38;;;3.33;;
45254;SDS011;30989;52.078;21.014;2024-01-15T10:35:59;8.63;;;2.78;;
45254;SDS011;30989;52.078;21.014;2024-01-15T10:38:25;6.03;;;2.85;;
45254;SDS011;30989;52.078;21.014;2024-01-15T10:40:55;9.43;;;3.38;;
45254;SDS011;30989;52.078;21.014;2024-01-15T10:43:21;6.78;;;2.85;;
45254;SDS011;30989;52.078;21.014;2024-01-15T10:45:48;6.43;;;3.00;;
45254;SDS011;30989;52.078;21.014;2024-01-15T10:48:18;7.28;;;3.53;;
45254;SDS011;30989;52.078;21.014;2024-01-15T10:50:45;6.43;;;3.58;;
45254;SDS011;30989;52.078;21.014;2024-01-15T10:53:12;13.27;;;3.60;;
45254;SDS011;30989;52.078;21.014;2024-01-15T10:55:39;9.00;;;4.60;;
45254;SDS011;30989;52.078;21.014;2024-01-15T10:58:09;7.47;;;3.30;;
45254;SDS011;30989;52.078;21.014;2024-01-15T11:00:35;10.35;;;3.58;;
45254;SDS011;30989;52.078;21.014;2024-01-15T11:03:07;9.57;;;3.58;;
45254;SDS011;30989;52.078;21.014;2024-01-15T11:05:33;11.88;;;4.00;;
45254;SDS011;30989;52.078;21.014;2024-01-15T11:08:02;7.68;;;3.13;;
45254;SDS011;30989;52.078;21.014;2024-01-15T11:10:40;7.72;;;3.85;;
45254;SDS011;30989;52.078;21.014;2024-01-15T11:13:15;8.25;;;3.80;;
45254;SDS011;30989;52.078;21.014;2024-01-15T11:15:58;7.65;;;3.30;;
45254;SDS011;30989;52.078;21.014;2024-01-15T11:19:00;9.43;;;4.72;;
45254;SDS011;30989;52.078;21.014;2024-01-15T11:21:28;9.68;;;3.67;;
45254;SDS011;30989;52.078;21.014;2024-01-15T11:26:34;11.70;;;3.42;;
45254;SDS011;30989;52.078;21.014;2024-01-15T11:29:06;6.90;;;3.30;;
45254;SDS011;30989;52.078;21.014;2024-01-15T11:34:08;7.07;;;2.85;;
45254;SDS011;30989;52.078;21.014;2024-01-15T11:44:24;8.15;;;3.78;;
45254;SDS011;30989;52.078;21.014;2024-01-15T11:52:17;10.18;;;3.53;;
45254;SDS011;30989;52.078;21.014;2024-01-15T11:54:48;10.43;;;4.57;;
45254;SDS011;30989;52.078;21.014;2024-01-15T12:00:08;9.35;;;3.88;;
45254;SDS011;30989;52.078;21.014;2024-01-15T12:02:39;11.27;;;4.00;;
45254;SDS011;30989;52.078;21.014;2024-01-15T12:05:11;10.90;;;4.47;;
45254;SDS011;30989;52.078;21.014;2024-01-15T12:07:41;11.73;;;4.60;;
45254;SDS011;30989;52.078;21.014;2024-01-15T12:10:15;7.90;;;3.38;;
45254;SDS011;30989;52.078;21.014;2024-01-15T12:15:26;11.82;;;5.22;;
45254;SDS011;30989;52.078;21.014;2024-01-15T12:17:58;10.57;;;3.85;;
45254;SDS011;30989;52.078;21.014;2024-01-15T12:20:25;12.15;;;5.88;;
45254;SDS011;30989;52.078;21.014;2024-01-15T12:22:51;12.40;;;4.55;;
45254;SDS011;30989;52.078;21.014;2024-01-15T12:25:17;10.10;;;4.78;;
45254;SDS011;30989;52.078;21.014;2024-01-15T12:27:42;15.65;;;4.60;;
45254;SDS011;30989;52.078;21.014;2024-01-15T12:30:12;9.88;;;4.25;;
45254;SDS011;30989;52.078;21.014;2024-01-15T12:32:39;10.30;;;5.22;;
45254;SDS011;30989;52.078;21.014;2024-01-15T12:35:06;9.77;;;4.25;;
45254;SDS011;30989;52.078;21.014;2024-01-15T12:37:34;16.38;;;6.15;;
45254;SDS011;30989;52.078;21.014;2024-01-15T12:40:00;11.70;;;5.82;;
45254;SDS011;30989;52.078;21.014;2024-01-15T12:42:26;12.50;;;4.75;;
45254;SDS011;30989;52.078;21.014;2024-01-15T12:44:54;11.52;;;5.50;;
45254;SDS011;30989;52.078;21.014;2024-01-15T12:47:21;9.18;;;5.35;;
45254;SDS011;30989;52.078;21.014;2024-01-15T12:49:51;10.45;;;4.65;;
45254;SDS011;30989;52.078;21.014;2024-01-15T12:52:19;11.82;;;5.07;;
45254;SDS011;30989;52.078;21.014;2024-01-15T12:54:46;14.30;;;6.25;;
45254;SDS011;30989;52.078;21.014;2024-01-15T12:57:15;14.10;;;5.88;;
45254;SDS011;30989;52.078;21.014;2024-01-15T12:59:42;10.65;;;4.60;;
45254;SDS011;30989;52.078;21.014;2024-01-15T13:02:13;12.65;;;5.25;;
45254;SDS011;30989;52.078;21.014;2024-01-15T13:04:39;11.65;;;5.00;;
45254;SDS011;30989;52.078;21.014;2024-01-15T13:07:05;11.45;;;5.32;;
45254;SDS011;30989;52.078;21.014;2024-01-15T13:09:32;17.67;;;5.80;;
45254;SDS011;30989;52.078;21.014;2024-01-15T13:11:58;14.57;;;5.85;;
45254;SDS011;30989;52.078;21.014;2024-01-15T13:14:24;14.88;;;5.63;;
45254;SDS011;30989;52.078;21.014;2024-01-15T13:16:49;11.50;;;4.43;;
45254;SDS011;30989;52.078;21.014;2024-01-15T13:19:15;14.82;;;5.53;;
45254;SDS011;30989;52.078;21.014;2024-01-15T13:21:41;15.05;;;5.80;;
45254;SDS011;30989;52.078;21.014;2024-01-15T13:24:07;11.30;;;4.90;;
45254;SDS011;30989;52.078;21.014;2024-01-15T13:26:33;16.05;;;5.60;;
45254;SDS011;30989;52.078;21.014;2024-01-15T13:29:00;16.00;;;5.13;;
45254;SDS011;30989;52.078;21.014;2024-01-15T13:31:26;10.68;;;5.68;;
45254;SDS011;30989;52.078;21.014;2024-01-15T13:33:55;12.43;;;4.82;;
45254;SDS011;30989;52.078;21.014;2024-01-15T13:36:21;11.88;;;4.90;;
45254;SDS011;30989;52.078;21.014;2024-01-15T13:38:50;14.10;;;4.95;;
45254;SDS011;30989;52.078;21.014;2024-01-15T13:41:17;12.40;;;5.40;;
45254;SDS011;30989;52.078;21.014;2024-01-15T13:43:52;14.18;;;6.30;;
45254;SDS011;30989;52.078;21.014;2024-01-15T13:46:19;14.77;;;5.57;;
45254;SDS011;30989;52.078;21.014;2024-01-15T13:48:46;21.30;;;5.32;;
45254;SDS011;30989;52.078;21.014;2024-01-15T13:51:12;17.83;;;6.57;;
45254;SDS011;30989;52.078;21.014;2024-01-15T13:53:41;14.25;;;6.53;;
45254;SDS011;30989;52.078;21.014;2024-01-15T13:56:07;12.00;;;5.35;;
45254;SDS011;30989;52.078;21.014;2024-01-15T13:58:33;16.33;;;4.93;;
45254;SDS011;30989;52.078;21.014;2024-01-15T14:00:59;12.05;;;6.57;;
45254;SDS011;30989;52.078;21.014;2024-01-15T14:03:25;20.92;;;7.93;;
45254;SDS011;30989;52.078;21.014;2024-01-15T14:05:51;12.10;;;6.07;;
45254;SDS011;30989;52.078;21.014;2024-01-15T14:08:17;19.95;;;6.38;;
45254;SDS011;30989;52.078;21.014;2024-01-15T14:10:42;15.73;;;5.57;;
45254;SDS011;30989;52.078;21.014;2024-01-15T14:13:08;11.93;;;5.65;;
45254;SDS011;30989;52.078;21.014;2024-01-15T14:15:34;19.02;;;5.82;;
45254;SDS011;30989;52.078;21.014;2024-01-15T14:17:59;19.17;;;6.60;;
45254;SDS011;30989;52.078;21.014;2024-01-15T14:20:26;23.08;;;5.88;;
45254;SDS011;30989;52.078;21.014;2024-01-15T14:22:55;16.27;;;5.80;;
45254;SDS011;30989;52.078;21.014;2024-01-15T14:25:20;16.67;;;6.30;;
45254;SDS011;30989;52.078;21.014;2024-01-15T14:27:46;12.73;;;4.95;;
45254;SDS011;30989;52.078;21.014;2024-01-15T14:30:13;17.75;;;6.38;;
45254;SDS011;30989;52.078;21.014;2024-01-15T14:32:43;18.63;;;5.30;;
45254;SDS011;30989;52.078;21.014;2024-01-15T14:35:10;16.17;;;6.50;;
45254;SDS011;30989;52.078;21.014;2024-01-15T14:37:39;15.48;;;6.63;;
45254;SDS011;30989;52.078;21.014;2024-01-15T14:40:08;13.60;;;6.45;;
45254;SDS011;30989;52.078;21.014;2024-01-15T14:42:36;15.80;;;6.18;;
45254;SDS011;30989;52.078;21.014;2024-01-15T14:45:02;15.00;;;6.22;;